• Join FlightAware (Why Join?)
  • Login
  • US Flag 
11:32PM EDT


 

Airport Tracker/Info


-or-


 

Live Flight TrackerFlight Track Log ✈ SWA1451 ✈ 26-Apr-2013 ✈ KMDW - KDEN

Flight Track Log - Related Links

Times and Time Zones

All times are in EDT time to prevent confusion due to time zone crossing. See the SWA1451 flight status page for this flight to view local times or setup timezone preferences in your user account.

Time Position Orientation Groundspeed Altitude Reporting Facility
EDT Latitude Longitude Course Direction KTS MPH feet Rate Location/Type
07:25AM 41.7667 -87.7833 264° West 135 155 2,600  Level Chicago TRACON
07:26AM 41.7500 -87.8500 251° West 190 219 3,000 1,020 Climbing Chicago TRACON
07:27AM 41.7667 -87.9167 289° West 202 232 4,700 1,860 Climbing Chicago TRACON
07:28AM 41.7644 -87.9614 266° West 204 235 5,900 3,780 Climbing Chicago Center
07:29AM 41.7644 -88.0553 270° West 248 285 10,700 3,900 Climbing Chicago Center
07:30AM 41.7589 -88.1533 266° West 264 304 14,000 3,060 Climbing Chicago Center
07:31AM 41.7379 -88.4407 264° West  Level FlightAware Approximate
07:31AM 41.7592 -88.2614 270° West 289 333 17,000  Level Chicago Center
07:32AM 41.7611 -88.3869 271° West 331 381 19,800 2,940 Climbing Chicago Center
07:33AM 41.7633 -88.5194 271° West 354 407 23,100 3,360 Climbing Chicago Center
07:34AM 41.7664 -88.6806 272° West 363 418 26,800 3,000 Climbing Chicago Center
07:35AM 41.7539 -88.8153 263° West 367 422 29,300 2,460 Climbing Chicago Center
07:36AM 41.7436 -88.9517 264° West 371 427 31,900 1,680 Climbing Chicago Center
07:37AM 41.7339 -89.0811 264° West 356 410 32,800 1,380 Climbing Chicago Center
07:38AM 41.7236 -89.2106 264° West 352 405 34,800 1,560 Climbing Chicago Center
07:39AM 41.7131 -89.3442 264° West 362 417 36,000 1,380 Climbing Chicago Center
07:40AM 41.7028 -89.4808 264° West 371 427 37,700 1,560 Climbing Chicago Center
07:41AM 41.6894 -89.6289 263° West 369 425 39,200 1,080 Climbing Chicago Center
07:42AM 41.6783 -89.7664 264° West 372 428 40,000 360 Climbing Chicago Center
07:43AM 41.6669 -89.9033 264° West 371 427 40,000  Level Chicago Center
07:44AM 41.6550 -90.0394 263° West 371 427 40,000  Level Chicago Center
07:45AM 41.6439 -90.1761 264° West 371 427 40,000  Level Chicago Center
07:46AM 41.6286 -90.3425 263° West 379 436 40,000  Level Chicago Center
07:47AM 41.6156 -90.4775 263° West 370 426 40,000  Level Chicago Center
07:48AM 41.6036 -90.6117 263° West 367 422 40,000  Level Chicago Center
07:49AM 41.5906 -90.7456 263° West 365 420 40,000  Level Chicago Center
07:50AM 41.5789 -90.8792 263° West 364 419 40,000  Level Chicago Center
07:51AM 41.5658 -91.0128 263° West 365 420 40,000  Level Chicago Center
07:52AM 41.5531 -91.1467 263° West 365 420 40,000  Level Chicago Center
07:54AM 41.5403 -91.2764 263° West 359 413 40,000  Level Chicago Center
07:55AM 41.5239 -91.4347 262° West 360 414 40,000  Level Chicago Center
07:56AM 41.5114 -91.5681 263° West 362 417 40,000  Level Chicago Center
07:57AM 41.4978 -91.7006 262° West 362 417 40,000  Level Chicago Center
07:58AM 41.4839 -91.8347 262° West 365 420 40,000  Level Chicago Center
07:59AM 41.4700 -91.9661 262° West 362 417 40,000  Level Chicago Center
08:00AM 41.4567 -92.0994 262° West 364 419 40,000  Level Chicago Center
08:01AM 41.4425 -92.2317 262° West 362 417 40,000  Level Chicago Center
08:02AM 41.4242 -92.3906 261° West 364 419 40,000  Level Chicago Center
08:03AM 41.4092 -92.5331 262° West 370 426 40,000  Level Chicago Center
08:04AM 41.3950 -92.6681 262° West 371 427 40,000  Level Chicago Center
08:05AM 41.3822 -92.7761 261° West 369 425 40,000  Level Minneapolis Center
08:06AM 41.3672 -92.9103 262° West 370 426 40,000  Level Minneapolis Center
08:07AM 41.3489 -93.0697 261° West 368 423 40,000  Level Minneapolis Center
08:08AM 41.3339 -93.2042 262° West 369 425 40,000  Level Minneapolis Center
08:09AM 41.3142 -93.3653 261° West 370 426 40,000  Level Minneapolis Center
08:10AM 41.2978 -93.4978 261° West 370 426 40,000  Level Minneapolis Center
08:11AM 41.2856 -93.6267 263° West 364 419 40,000  Level Minneapolis Center
08:12AM 41.2694 -93.7611 261° West 369 425 40,000  Level Minneapolis Center
08:13AM 41.2514 -93.8975 260° West 375 432 40,000  Level Minneapolis Center
08:14AM 41.2356 -94.0339 261° West 377 434 40,000  Level Minneapolis Center
08:15AM 41.2186 -94.1692 261° West 376 433 40,000  Level Minneapolis Center
08:16AM 41.2006 -94.3197 261° West 376 433 40,000  Level Minneapolis Center
08:17AM 41.1833 -94.4547 260° West 373 429 40,000  Level Minneapolis Center
08:18AM 41.1653 -94.5911 260° West 373 429 40,000  Level Minneapolis Center
08:19AM 41.1444 -94.7528 260° West 372 428 40,000  Level Minneapolis Center
08:20AM 41.1264 -94.8897 260° West 374 430 40,000  Level Minneapolis Center
08:21AM 41.1083 -95.0261 260° West 376 433 40,000  Level Minneapolis Center
08:22AM 41.0867 -95.1908 260° West 376 433 40,000  Level Minneapolis Center
08:23AM 41.0675 -95.3289 260° West 378 435 40,000  Level Minneapolis Center
08:24AM 41.0486 -95.4683 260° West 381 438 40,000  Level Minneapolis Center
08:25AM 41.0289 -95.6050 259° West 379 436 40,000  Level Minneapolis Center
08:27AM 41.0058 -95.7728 260° West 381 438 40,000  Level Minneapolis Center
08:28AM 40.9864 -95.9125 260° West 383 441 40,000  Level Minneapolis Center
08:29AM 40.9636 -96.0808 260° West 384 442 40,000  Level Minneapolis Center
08:30AM 40.9575 -96.2225 267° West 383 441 40,000  Level Minneapolis Center
08:31AM 40.9558 -96.3650 269° West 384 442 40,000  Level Minneapolis Center
08:32AM 40.9522 -96.5078 268° West 385 443 40,000  Level Minneapolis Center
08:33AM 40.9492 -96.6494 268° West 385 443 40,000  Level Minneapolis Center
08:34AM 40.9461 -96.8194 269° West 385 443 40,000  Level Minneapolis Center
08:35AM 40.9411 -96.9600 267° West 383 441 40,000  Level Minneapolis Center
08:36AM 40.9375 -97.1000 268° West 382 440 40,000  Level Minneapolis Center
08:37AM 40.9350 -97.2428 269° West 386 444 40,000  Level Minneapolis Center
08:38AM 40.9292 -97.4086 267° West 386 444 40,000  Level Minneapolis Center
08:39AM 40.9244 -97.5483 267° West 382 440 40,000  Level Minneapolis Center
08:40AM 40.9200 -97.6900 268° West 384 442 40,000  Level Minneapolis Center
08:41AM 40.9156 -97.8308 268° West 384 442 40,000  Level Minneapolis Center
08:42AM 40.9111 -97.9717 268° West 383 441 40,000  Level Minneapolis Center
08:43AM 40.9064 -98.1128 268° West 383 441 40,000  Level Minneapolis Center
08:44AM 40.9011 -98.2542 267° West 383 441 40,000  Level Minneapolis Center
08:45AM 40.8956 -98.3956 267° West 383 441 40,000  Level Minneapolis Center
08:46AM 40.8903 -98.5372 267° West 383 441 40,000  Level Minneapolis Center
08:47AM 40.8825 -98.7050 267° West 383 441 40,000  Level Minneapolis Center
08:48AM 40.8769 -98.8458 267° West 382 440 40,000  Level Minneapolis Center
08:50AM 40.8708 -98.9869 267° West 384 442 40,000  Level Minneapolis Center
08:51AM 40.8661 -99.1344 268° West 384 442 40,000  Level Minneapolis Center
08:51AM 40.8628 -99.1917 266° West 385 443 40,000  Level Denver Center
08:52AM 40.8558 -99.3356 266° West 389 448 40,000  Level Denver Center
08:53AM 40.8489 -99.4797 266° West 392 451 40,000  Level Denver Center
08:54AM 40.8425 -99.6244 267° West 394 453 40,000  Level Denver Center
08:55AM 40.8350 -99.7694 266° West 395 455 40,000  Level Denver Center
08:56AM 40.8253 -99.9417 266° West 394 453 40,000  Level Denver Center
08:57AM 40.8089 -100.0767 261° West 392 451 40,000  Level Denver Center
08:58AM 40.7897 -100.2103 259° West 388 447 40,000  Level Denver Center
08:59AM 40.7672 -100.3661 259° West 387 445 40,000  Level Denver Center
09:00AM 40.7481 -100.5014 259° West 390 449 40,000  Level Denver Center
09:01AM 40.7267 -100.6353 258° West 386 444 40,000  Level Denver Center
09:02AM 40.7067 -100.7725 259° West 389 448 40,000  Level Denver Center
09:03AM 40.6822 -100.9322 259° West 392 451 40,000  Level Denver Center
09:04AM 40.6617 -101.0678 259° West 392 451 40,000  Level Denver Center
09:05AM 40.6408 -101.2039 259° West 396 456 40,000  Level Denver Center
09:06AM 40.6164 -101.3622 259° West 395 455 40,000  Level Denver Center
09:07AM 40.5950 -101.4981 258° West 396 456 40,000  Level Denver Center
09:08AM 40.5733 -101.6347 258° West 399 459 40,000  Level Denver Center
09:09AM 40.5478 -101.7953 258° West 402 463 40,000  Level Denver Center
09:10AM 40.5258 -101.9311 258° West 399 459 40,000  Level Denver Center
09:12AM 40.5053 -102.0678 259° West 399 459 40,000  Level Denver Center
09:13AM 40.4753 -102.2469 258° West 396 456 40,000  Level Denver Center
09:14AM 40.4531 -102.3811 258° West 393 452 40,000  Level Denver Center
09:15AM 40.4269 -102.5369 258° West 393 452 40,000 -660 Level Denver Center
09:16AM 40.4050 -102.6692 258° West 393 452 38,700 -1,920 Descending Denver Center
09:17AM 40.3811 -102.8103 258° West 393 452 35,800 -3,120 Descending Denver Center
09:18AM 40.3522 -102.9808 258° West 407 468 31,800 -3,300 Descending Denver Center
09:19AM 40.3269 -103.1264 257° West 407 468 29,200 -2,400 Descending Denver Center
09:20AM 40.3075 -103.2453 258° West 399 459 27,000 -2,580 Descending Denver Center
09:21AM 40.2797 -103.4056 257° West 384 442 24,000 -2,700 Descending Denver Center
09:22AM 40.2569 -103.5381 257° West 372 428 21,600 -2,340 Descending Denver Center
09:23AM 40.2336 -103.6642 256° West 356 410 19,300 -1,980 Descending Denver Center
09:24AM 40.1936 -103.7964 248° West 343 395 17,700 -1,620 Descending Denver Center
09:25AM 40.1367 -103.8983 234° Southwest 347 399 16,100 -1,920 Descending Denver Center
09:26AM 40.0817 -103.9956 234° Southwest 331 381 13,800 -2,220 Descending Denver Center
09:27AM 40.0283 -104.0931 234° Southwest 330 380 11,600 -1,440 Descending Denver Center
09:28AM 39.9914 -104.1978 245° Southwest 314 361 10,600 -900 Descending Denver Center
09:29AM 39.9528 -104.3025 244° Southwest 260 299 9,700 -1,020 Descending Denver Center
09:30AM 39.9225 -104.3842 244° Southwest 253 291 8,400 -1,080 Descending Denver Center
09:31AM 39.9000 -104.4333 239° Southwest 243 280 8,100 -1,140 Descending Denver TRACON
09:32AM 39.8833 -104.5000 252° West 199 229 7,000 -900 Descending Denver TRACON
09:33AM 39.8833 -104.5500 270° West 153 176 6,300 -720 Descending Denver TRACON
09:34AM 39.8833 -104.6000 270° West 136 157 5,600 -600 Descending Denver TRACON
09:34AM 39.8772 -104.6364 258° West 136 157 5,300 -420 Descending Denver Center
09:36AM 39.8617 -104.6732 180° South  Level Estimated
09:43AM 39.8617 -104.6732 North  Level Estimated
09:44AM 39.8617 -104.6732 North  Level Estimated